sensor_id;sensor_type;location;lat;lon;timestamp;P1;durP1;ratioP1;P2;durP2;ratioP2
6023;SDS011;3040;42.654;23.296;2023-01-06T00:00:21;6.13;;;5.10;;
6023;SDS011;3040;42.654;23.296;2023-01-06T00:02:48;9.33;;;5.90;;
6023;SDS011;3040;42.654;23.296;2023-01-06T00:05:16;5.93;;;5.43;;
6023;SDS011;3040;42.654;23.296;2023-01-06T00:07:43;6.57;;;5.87;;
6023;SDS011;3040;42.654;23.296;2023-01-06T00:10:10;5.17;;;4.87;;
6023;SDS011;3040;42.654;23.296;2023-01-06T00:12:37;9.90;;;4.43;;
6023;SDS011;3040;42.654;23.296;2023-01-06T00:15:06;4.90;;;4.50;;
6023;SDS011;3040;42.654;23.296;2023-01-06T00:17:33;5.53;;;5.23;;
6023;SDS011;3040;42.654;23.296;2023-01-06T00:20:00;5.00;;;4.70;;
6023;SDS011;3040;42.654;23.296;2023-01-06T00:22:27;5.13;;;4.63;;
6023;SDS011;3040;42.654;23.296;2023-01-06T00:24:54;5.03;;;4.73;;
6023;SDS011;3040;42.654;23.296;2023-01-06T00:27:21;5.17;;;4.87;;
6023;SDS011;3040;42.654;23.296;2023-01-06T00:29:47;5.47;;;5.17;;
6023;SDS011;3040;42.654;23.296;2023-01-06T00:32:16;5.27;;;4.97;;
6023;SDS011;3040;42.654;23.296;2023-01-06T00:34:44;6.40;;;5.80;;
6023;SDS011;3040;42.654;23.296;2023-01-06T00:37:11;5.50;;;5.10;;
6023;SDS011;3040;42.654;23.296;2023-01-06T00:39:37;5.73;;;4.83;;
6023;SDS011;3040;42.654;23.296;2023-01-06T00:42:04;5.70;;;5.20;;
6023;SDS011;3040;42.654;23.296;2023-01-06T00:44:32;5.20;;;4.90;;
6023;SDS011;3040;42.654;23.296;2023-01-06T00:47:00;5.20;;;4.80;;
6023;SDS011;3040;42.654;23.296;2023-01-06T00:49:29;5.13;;;4.80;;
6023;SDS011;3040;42.654;23.296;2023-01-06T00:51:56;5.33;;;4.93;;
6023;SDS011;3040;42.654;23.296;2023-01-06T00:54:23;4.60;;;4.37;;
6023;SDS011;3040;42.654;23.296;2023-01-06T00:56:50;7.87;;;4.70;;
6023;SDS011;3040;42.654;23.296;2023-01-06T00:59:20;4.60;;;4.30;;
6023;SDS011;3040;42.654;23.296;2023-01-06T01:01:49;4.70;;;4.40;;
6023;SDS011;3040;42.654;23.296;2023-01-06T01:04:17;4.50;;;4.17;;
6023;SDS011;3040;42.654;23.296;2023-01-06T01:06:46;5.07;;;4.77;;
6023;SDS011;3040;42.654;23.296;2023-01-06T01:09:14;5.90;;;5.13;;
6023;SDS011;3040;42.654;23.296;2023-01-06T01:11:42;4.70;;;4.40;;
6023;SDS011;3040;42.654;23.296;2023-01-06T01:14:27;6.27;;;4.77;;
6023;SDS011;3040;42.654;23.296;2023-01-06T01:16:54;4.90;;;4.60;;
6023;SDS011;3040;42.654;23.296;2023-01-06T01:19:21;5.00;;;4.60;;
6023;SDS011;3040;42.654;23.296;2023-01-06T01:21:50;4.37;;;4.07;;
6023;SDS011;3040;42.654;23.296;2023-01-06T01:24:18;4.80;;;4.40;;
6023;SDS011;3040;42.654;23.296;2023-01-06T01:26:45;5.40;;;5.10;;
6023;SDS011;3040;42.654;23.296;2023-01-06T01:29:13;5.27;;;4.97;;
6023;SDS011;3040;42.654;23.296;2023-01-06T01:31:41;4.67;;;4.37;;
6023;SDS011;3040;42.654;23.296;2023-01-06T01:34:09;4.40;;;4.10;;
6023;SDS011;3040;42.654;23.296;2023-01-06T01:36:38;6.03;;;4.60;;
6023;SDS011;3040;42.654;23.296;2023-01-06T01:39:07;4.40;;;4.00;;
6023;SDS011;3040;42.654;23.296;2023-01-06T01:41:34;4.70;;;4.40;;
6023;SDS011;3040;42.654;23.296;2023-01-06T01:44:02;4.47;;;3.93;;
6023;SDS011;3040;42.654;23.296;2023-01-06T01:46:44;4.23;;;3.93;;
6023;SDS011;3040;42.654;23.296;2023-01-06T01:49:12;6.07;;;4.40;;
6023;SDS011;3040;42.654;23.296;2023-01-06T01:51:42;4.33;;;4.03;;
6023;SDS011;3040;42.654;23.296;2023-01-06T01:54:13;4.17;;;3.77;;
6023;SDS011;3040;42.654;23.296;2023-01-06T01:56:45;3.10;;;2.90;;
6023;SDS011;3040;42.654;23.296;2023-01-06T01:59:17;2.90;;;2.80;;
6023;SDS011;3040;42.654;23.296;2023-01-06T02:01:46;3.33;;;3.03;;
6023;SDS011;3040;42.654;23.296;2023-01-06T02:04:15;5.70;;;2.90;;
6023;SDS011;3040;42.654;23.296;2023-01-06T02:06:43;3.00;;;2.80;;
6023;SDS011;3040;42.654;23.296;2023-01-06T02:09:16;3.30;;;3.10;;
6023;SDS011;3040;42.654;23.296;2023-01-06T02:11:54;2.53;;;2.33;;
6023;SDS011;3040;42.654;23.296;2023-01-06T02:14:22;2.50;;;2.40;;
6023;SDS011;3040;42.654;23.296;2023-01-06T02:16:54;7.70;;;2.50;;
6023;SDS011;3040;42.654;23.296;2023-01-06T02:22:48;5.00;;;2.57;;
6023;SDS011;3040;42.654;23.296;2023-01-06T02:25:44;2.13;;;2.03;;
6023;SDS011;3040;42.654;23.296;2023-01-06T02:34:29;2.90;;;2.80;;
6023;SDS011;3040;42.654;23.296;2023-01-06T02:37:07;2.70;;;2.50;;
6023;SDS011;3040;42.654;23.296;2023-01-06T02:39:49;2.30;;;2.20;;
6023;SDS011;3040;42.654;23.296;2023-01-06T02:42:28;2.77;;;2.57;;
6023;SDS011;3040;42.654;23.296;2023-01-06T02:45:05;3.20;;;3.00;;
6023;SDS011;3040;42.654;23.296;2023-01-06T02:47:45;6.03;;;3.47;;
6023;SDS011;3040;42.654;23.296;2023-01-06T02:50:18;3.50;;;3.30;;
6023;SDS011;3040;42.654;23.296;2023-01-06T02:52:52;3.30;;;3.10;;
6023;SDS011;3040;42.654;23.296;2023-01-06T02:55:31;3.20;;;3.10;;
6023;SDS011;3040;42.654;23.296;2023-01-06T02:58:03;4.90;;;3.00;;
6023;SDS011;3040;42.654;23.296;2023-01-06T03:00:37;3.70;;;3.40;;
6023;SDS011;3040;42.654;23.296;2023-01-06T03:03:09;3.30;;;2.80;;
6023;SDS011;3040;42.654;23.296;2023-01-06T03:05:39;3.77;;;3.57;;
6023;SDS011;3040;42.654;23.296;2023-01-06T03:08:12;36.60;;;5.10;;
6023;SDS011;3040;42.654;23.296;2023-01-06T03:10:42;3.43;;;3.23;;
6023;SDS011;3040;42.654;23.296;2023-01-06T03:13:13;3.33;;;3.13;;
6023;SDS011;3040;42.654;23.296;2023-01-06T03:15:46;2.53;;;2.33;;
6023;SDS011;3040;42.654;23.296;2023-01-06T03:18:14;2.20;;;2.10;;
6023;SDS011;3040;42.654;23.296;2023-01-06T03:20:42;11.13;;;2.23;;
6023;SDS011;3040;42.654;23.296;2023-01-06T03:23:08;9.40;;;2.07;;
6023;SDS011;3040;42.654;23.296;2023-01-06T03:25:37;2.60;;;2.40;;
6023;SDS011;3040;42.654;23.296;2023-01-06T03:28:04;2.30;;;2.20;;
6023;SDS011;3040;42.654;23.296;2023-01-06T03:30:33;2.70;;;2.20;;
6023;SDS011;3040;42.654;23.296;2023-01-06T03:33:07;3.63;;;2.43;;
6023;SDS011;3040;42.654;23.296;2023-01-06T03:35:48;3.00;;;2.70;;
6023;SDS011;3040;42.654;23.296;2023-01-06T03:38:31;3.10;;;2.67;;
6023;SDS011;3040;42.654;23.296;2023-01-06T03:41:09;2.10;;;2.00;;
6023;SDS011;3040;42.654;23.296;2023-01-06T03:43:47;2.60;;;2.40;;
6023;SDS011;3040;42.654;23.296;2023-01-06T03:46:24;2.37;;;2.27;;
6023;SDS011;3040;42.654;23.296;2023-01-06T03:48:57;2.90;;;2.70;;
6023;SDS011;3040;42.654;23.296;2023-01-06T03:51:35;2.30;;;2.20;;
6023;SDS011;3040;42.654;23.296;2023-01-06T03:54:08;2.97;;;2.73;;
6023;SDS011;3040;42.654;23.296;2023-01-06T03:56:41;2.47;;;2.33;;
6023;SDS011;3040;42.654;23.296;2023-01-06T03:59:14;2.87;;;2.67;;
6023;SDS011;3040;42.654;23.296;2023-01-06T04:01:44;5.10;;;2.63;;
6023;SDS011;3040;42.654;23.296;2023-01-06T04:04:11;2.67;;;2.57;;
6023;SDS011;3040;42.654;23.296;2023-01-06T04:06:40;5.67;;;2.27;;
6023;SDS011;3040;42.654;23.296;2023-01-06T04:09:06;5.53;;;2.80;;
6023;SDS011;3040;42.654;23.296;2023-01-06T04:11:34;2.90;;;2.70;;
6023;SDS011;3040;42.654;23.296;2023-01-06T04:14:18;3.03;;;2.73;;
6023;SDS011;3040;42.654;23.296;2023-01-06T04:16:45;2.80;;;2.70;;
6023;SDS011;3040;42.654;23.296;2023-01-06T04:19:12;3.30;;;3.10;;
6023;SDS011;3040;42.654;23.296;2023-01-06T04:21:40;3.20;;;2.90;;
6023;SDS011;3040;42.654;23.296;2023-01-06T04:24:07;2.77;;;2.67;;
6023;SDS011;3040;42.654;23.296;2023-01-06T04:26:34;3.07;;;2.87;;
6023;SDS011;3040;42.654;23.296;2023-01-06T04:29:01;2.20;;;2.10;;
6023;SDS011;3040;42.654;23.296;2023-01-06T04:31:28;2.70;;;2.23;;
6023;SDS011;3040;42.654;23.296;2023-01-06T04:33:55;3.50;;;2.60;;
6023;SDS011;3040;42.654;23.296;2023-01-06T04:36:21;2.83;;;2.17;;
6023;SDS011;3040;42.654;23.296;2023-01-06T04:38:50;39.73;;;5.83;;
6023;SDS011;3040;42.654;23.296;2023-01-06T04:41:17;2.50;;;2.30;;
6023;SDS011;3040;42.654;23.296;2023-01-06T04:43:44;13.83;;;2.70;;
6023;SDS011;3040;42.654;23.296;2023-01-06T04:46:11;2.47;;;2.37;;
6023;SDS011;3040;42.654;23.296;2023-01-06T04:48:39;6.73;;;2.40;;
6023;SDS011;3040;42.654;23.296;2023-01-06T04:51:06;2.30;;;2.20;;
6023;SDS011;3040;42.654;23.296;2023-01-06T04:53:38;1.93;;;1.83;;
6023;SDS011;3040;42.654;23.296;2023-01-06T04:56:08;2.37;;;2.17;;
6023;SDS011;3040;42.654;23.296;2023-01-06T04:58:36;2.07;;;1.97;;
6023;SDS011;3040;42.654;23.296;2023-01-06T05:01:05;3.27;;;2.33;;
6023;SDS011;3040;42.654;23.296;2023-01-06T05:03:33;1.60;;;1.50;;
6023;SDS011;3040;42.654;23.296;2023-01-06T05:06:00;1.97;;;1.63;;
6023;SDS011;3040;42.654;23.296;2023-01-06T05:08:28;2.90;;;2.20;;
6023;SDS011;3040;42.654;23.296;2023-01-06T05:10:58;2.20;;;2.10;;
6023;SDS011;3040;42.654;23.296;2023-01-06T05:13:27;2.00;;;1.70;;
6023;SDS011;3040;42.654;23.296;2023-01-06T05:15:54;2.60;;;1.73;;
6023;SDS011;3040;42.654;23.296;2023-01-06T05:18:21;2.13;;;2.03;;
6023;SDS011;3040;42.654;23.296;2023-01-06T05:20:49;2.00;;;1.90;;
6023;SDS011;3040;42.654;23.296;2023-01-06T05:23:16;2.30;;;2.13;;
6023;SDS011;3040;42.654;23.296;2023-01-06T05:25:43;2.20;;;2.10;;
6023;SDS011;3040;42.654;23.296;2023-01-06T05:28:11;2.60;;;2.50;;
6023;SDS011;3040;42.654;23.296;2023-01-06T05:30:39;2.00;;;1.90;;
6023;SDS011;3040;42.654;23.296;2023-01-06T05:33:06;2.03;;;1.93;;
6023;SDS011;3040;42.654;23.296;2023-01-06T05:35:33;2.90;;;1.97;;
6023;SDS011;3040;42.654;23.296;2023-01-06T05:38:00;2.30;;;2.20;;
6023;SDS011;3040;42.654;23.296;2023-01-06T05:40:27;2.00;;;1.90;;
6023;SDS011;3040;42.654;23.296;2023-01-06T05:42:54;1.90;;;1.80;;
6023;SDS011;3040;42.654;23.296;2023-01-06T05:45:22;2.17;;;2.07;;
6023;SDS011;3040;42.654;23.296;2023-01-06T05:47:52;4.10;;;2.33;;
6023;SDS011;3040;42.654;23.296;2023-01-06T05:50:19;2.43;;;1.83;;
6023;SDS011;3040;42.654;23.296;2023-01-06T05:52:46;2.10;;;2.00;;
6023;SDS011;3040;42.654;23.296;2023-01-06T05:55:13;1.90;;;1.80;;
6023;SDS011;3040;42.654;23.296;2023-01-06T05:57:39;2.20;;;2.00;;
6023;SDS011;3040;42.654;23.296;2023-01-06T06:00:07;2.30;;;2.10;;
6023;SDS011;3040;42.654;23.296;2023-01-06T06:02:34;2.17;;;2.07;;
6023;SDS011;3040;42.654;23.296;2023-01-06T06:05:03;2.37;;;1.90;;
6023;SDS011;3040;42.654;23.296;2023-01-06T06:07:30;1.83;;;1.73;;
6023;SDS011;3040;42.654;23.296;2023-01-06T06:09:57;2.43;;;1.83;;
6023;SDS011;3040;42.654;23.296;2023-01-06T06:12:27;2.07;;;1.97;;
6023;SDS011;3040;42.654;23.296;2023-01-06T06:14:54;2.23;;;2.13;;
6023;SDS011;3040;42.654;23.296;2023-01-06T06:17:21;2.23;;;1.97;;
6023;SDS011;3040;42.654;23.296;2023-01-06T06:19:49;1.57;;;1.47;;
6023;SDS011;3040;42.654;23.296;2023-01-06T06:22:17;2.20;;;1.70;;
6023;SDS011;3040;42.654;23.296;2023-01-06T06:24:44;2.00;;;1.90;;
6023;SDS011;3040;42.654;23.296;2023-01-06T06:27:11;2.33;;;1.70;;
6023;SDS011;3040;42.654;23.296;2023-01-06T06:29:38;2.43;;;1.33;;
6023;SDS011;3040;42.654;23.296;2023-01-06T06:34:42;4.10;;;1.97;;
6023;SDS011;3040;42.654;23.296;2023-01-06T06:37:09;1.60;;;1.50;;
6023;SDS011;3040;42.654;23.296;2023-01-06T06:39:37;5.63;;;2.00;;
6023;SDS011;3040;42.654;23.296;2023-01-06T06:42:04;1.83;;;1.37;;
6023;SDS011;3040;42.654;23.296;2023-01-06T06:44:31;3.60;;;1.40;;
6023;SDS011;3040;42.654;23.296;2023-01-06T06:46:58;2.87;;;1.13;;
6023;SDS011;3040;42.654;23.296;2023-01-06T06:49:25;2.00;;;1.30;;
6023;SDS011;3040;42.654;23.296;2023-01-06T06:51:51;5.57;;;1.60;;
6023;SDS011;3040;42.654;23.296;2023-01-06T06:54:18;1.57;;;1.30;;
6023;SDS011;3040;42.654;23.296;2023-01-06T06:56:47;1.90;;;1.57;;
6023;SDS011;3040;42.654;23.296;2023-01-06T06:59:13;1.53;;;1.43;;
6023;SDS011;3040;42.654;23.296;2023-01-06T07:01:40;1.50;;;1.40;;
6023;SDS011;3040;42.654;23.296;2023-01-06T07:04:07;6.47;;;2.00;;
6023;SDS011;3040;42.654;23.296;2023-01-06T07:06:34;1.70;;;1.60;;
6023;SDS011;3040;42.654;23.296;2023-01-06T07:09:01;1.80;;;1.70;;
6023;SDS011;3040;42.654;23.296;2023-01-06T07:11:28;1.73;;;1.63;;
6023;SDS011;3040;42.654;23.296;2023-01-06T07:13:56;1.87;;;1.77;;
6023;SDS011;3040;42.654;23.296;2023-01-06T07:16:23;1.80;;;1.70;;
6023;SDS011;3040;42.654;23.296;2023-01-06T07:18:51;1.83;;;1.73;;
6023;SDS011;3040;42.654;23.296;2023-01-06T07:21:18;3.67;;;1.43;;
6023;SDS011;3040;42.654;23.296;2023-01-06T07:23:45;1.70;;;1.40;;
6023;SDS011;3040;42.654;23.296;2023-01-06T07:26:12;2.23;;;1.70;;
6023;SDS011;3040;42.654;23.296;2023-01-06T07:28:39;4.47;;;1.77;;
6023;SDS011;3040;42.654;23.296;2023-01-06T07:31:08;1.53;;;1.43;;
6023;SDS011;3040;42.654;23.296;2023-01-06T07:33:35;1.40;;;1.17;;
6023;SDS011;3040;42.654;23.296;2023-01-06T07:36:01;6.03;;;1.60;;
6023;SDS011;3040;42.654;23.296;2023-01-06T07:38:29;3.90;;;1.73;;
6023;SDS011;3040;42.654;23.296;2023-01-06T07:40:57;1.83;;;1.47;;
6023;SDS011;3040;42.654;23.296;2023-01-06T07:43:25;1.50;;;1.40;;
6023;SDS011;3040;42.654;23.296;2023-01-06T07:45:52;4.00;;;1.60;;
6023;SDS011;3040;42.654;23.296;2023-01-06T07:48:20;1.40;;;1.30;;
6023;SDS011;3040;42.654;23.296;2023-01-06T07:50:47;1.50;;;1.40;;
6023;SDS011;3040;42.654;23.296;2023-01-06T07:53:14;1.60;;;1.10;;
6023;SDS011;3040;42.654;23.296;2023-01-06T07:55:41;1.30;;;1.30;;
6023;SDS011;3040;42.654;23.296;2023-01-06T07:58:08;1.47;;;1.37;;
6023;SDS011;3040;42.654;23.296;2023-01-06T08:00:35;4.13;;;1.80;;
6023;SDS011;3040;42.654;23.296;2023-01-06T08:03:03;2.10;;;1.33;;
6023;SDS011;3040;42.654;23.296;2023-01-06T08:05:35;1.73;;;1.63;;
6023;SDS011;3040;42.654;23.296;2023-01-06T08:08:02;1.20;;;1.20;;
6023;SDS011;3040;42.654;23.296;2023-01-06T08:10:29;2.43;;;1.67;;
6023;SDS011;3040;42.654;23.296;2023-01-06T08:12:56;1.60;;;1.50;;
6023;SDS011;3040;42.654;23.296;2023-01-06T08:15:23;2.03;;;1.93;;
6023;SDS011;3040;42.654;23.296;2023-01-06T08:17:51;6.77;;;1.50;;
6023;SDS011;3040;42.654;23.296;2023-01-06T08:20:18;1.60;;;1.50;;
6023;SDS011;3040;42.654;23.296;2023-01-06T08:22:46;1.40;;;1.20;;
6023;SDS011;3040;42.654;23.296;2023-01-06T08:25:13;1.57;;;1.47;;
6023;SDS011;3040;42.654;23.296;2023-01-06T08:27:40;1.60;;;1.50;;
6023;SDS011;3040;42.654;23.296;2023-01-06T08:30:07;1.40;;;1.30;;
6023;SDS011;3040;42.654;23.296;2023-01-06T08:32:35;5.47;;;1.33;;
6023;SDS011;3040;42.654;23.296;2023-01-06T08:35:02;4.57;;;1.90;;
6023;SDS011;3040;42.654;23.296;2023-01-06T08:37:29;1.67;;;1.57;;
6023;SDS011;3040;42.654;23.296;2023-01-06T08:39:57;1.90;;;1.50;;
6023;SDS011;3040;42.654;23.296;2023-01-06T08:42:24;1.97;;;1.33;;
6023;SDS011;3040;42.654;23.296;2023-01-06T08:44:51;1.30;;;1.30;;
6023;SDS011;3040;42.654;23.296;2023-01-06T08:47:18;1.40;;;1.30;;
6023;SDS011;3040;42.654;23.296;2023-01-06T08:49:45;2.53;;;1.00;;
6023;SDS011;3040;42.654;23.296;2023-01-06T08:52:12;0.70;;;0.70;;
6023;SDS011;3040;42.654;23.296;2023-01-06T08:54:39;2.63;;;1.17;;
6023;SDS011;3040;42.654;23.296;2023-01-06T08:57:07;2.47;;;1.10;;
6023;SDS011;3040;42.654;23.296;2023-01-06T08:59:35;4.93;;;0.90;;
6023;SDS011;3040;42.654;23.296;2023-01-06T09:02:02;2.23;;;1.10;;
6023;SDS011;3040;42.654;23.296;2023-01-06T09:04:29;1.80;;;1.07;;
6023;SDS011;3040;42.654;23.296;2023-01-06T09:06:55;1.00;;;1.00;;
6023;SDS011;3040;42.654;23.296;2023-01-06T09:09:23;5.23;;;1.50;;
6023;SDS011;3040;42.654;23.296;2023-01-06T09:11:50;3.13;;;1.40;;
6023;SDS011;3040;42.654;23.296;2023-01-06T09:14:18;1.37;;;1.30;;
6023;SDS011;3040;42.654;23.296;2023-01-06T09:16:45;1.33;;;1.20;;
6023;SDS011;3040;42.654;23.296;2023-01-06T09:19:13;1.73;;;1.10;;
6023;SDS011;3040;42.654;23.296;2023-01-06T09:21:40;4.97;;;1.50;;
6023;SDS011;3040;42.654;23.296;2023-01-06T09:24:08;3.40;;;1.10;;
6023;SDS011;3040;42.654;23.296;2023-01-06T09:26:38;1.67;;;1.57;;
6023;SDS011;3040;42.654;23.296;2023-01-06T09:29:05;2.80;;;1.23;;
6023;SDS011;3040;42.654;23.296;2023-01-06T09:31:33;2.60;;;1.57;;
6023;SDS011;3040;42.654;23.296;2023-01-06T09:34:00;1.37;;;1.27;;
6023;SDS011;3040;42.654;23.296;2023-01-06T09:36:27;0.80;;;0.80;;
6023;SDS011;3040;42.654;23.296;2023-01-06T09:38:54;0.70;;;0.70;;
6023;SDS011;3040;42.654;23.296;2023-01-06T09:41:25;1.93;;;0.77;;
6023;SDS011;3040;42.654;23.296;2023-01-06T09:44:19;1.60;;;0.80;;
6023;SDS011;3040;42.654;23.296;2023-01-06T09:46:52;1.77;;;1.07;;
6023;SDS011;3040;42.654;23.296;2023-01-06T09:49:21;1.13;;;1.00;;
6023;SDS011;3040;42.654;23.296;2023-01-06T09:51:53;1.30;;;1.20;;
6023;SDS011;3040;42.654;23.296;2023-01-06T09:54:22;1.90;;;0.93;;
6023;SDS011;3040;42.654;23.296;2023-01-06T09:56:55;1.13;;;1.00;;
6023;SDS011;3040;42.654;23.296;2023-01-06T09:59:29;1.13;;;1.03;;
6023;SDS011;3040;42.654;23.296;2023-01-06T10:02:01;1.50;;;0.87;;
6023;SDS011;3040;42.654;23.296;2023-01-06T10:04:31;4.10;;;0.93;;
6023;SDS011;3040;42.654;23.296;2023-01-06T10:07:01;1.07;;;0.80;;
6023;SDS011;3040;42.654;23.296;2023-01-06T10:09:40;2.20;;;0.90;;
6023;SDS011;3040;42.654;23.296;2023-01-06T10:12:17;2.40;;;0.83;;
6023;SDS011;3040;42.654;23.296;2023-01-06T10:14:58;4.43;;;0.97;;
6023;SDS011;3040;42.654;23.296;2023-01-06T10:17:47;0.90;;;0.70;;
6023;SDS011;3040;42.654;23.296;2023-01-06T10:20:38;1.77;;;1.00;;
6023;SDS011;3040;42.654;23.296;2023-01-06T10:23:21;1.67;;;0.83;;
6023;SDS011;3040;42.654;23.296;2023-01-06T10:26:00;3.13;;;0.83;;
6023;SDS011;3040;42.654;23.296;2023-01-06T10:28:33;1.50;;;0.90;;
6023;SDS011;3040;42.654;23.296;2023-01-06T10:31:01;0.87;;;0.87;;
6023;SDS011;3040;42.654;23.296;2023-01-06T10:33:34;5.00;;;1.10;;
6023;SDS011;3040;42.654;23.296;2023-01-06T10:36:09;2.50;;;0.83;;
6023;SDS011;3040;42.654;23.296;2023-01-06T10:38:38;1.63;;;0.70;;
6023;SDS011;3040;42.654;23.296;2023-01-06T10:41:09;0.80;;;0.80;;
6023;SDS011;3040;42.654;23.296;2023-01-06T10:43:41;2.13;;;0.83;;
6023;SDS011;3040;42.654;23.296;2023-01-06T10:46:08;2.80;;;0.90;;
6023;SDS011;3040;42.654;23.296;2023-01-06T10:48:36;0.73;;;0.73;;
6023;SDS011;3040;42.654;23.296;2023-01-06T10:51:07;3.73;;;1.37;;
6023;SDS011;3040;42.654;23.296;2023-01-06T10:53:55;1.00;;;1.00;;
6023;SDS011;3040;42.654;23.296;2023-01-06T10:56:23;1.03;;;1.00;;
6023;SDS011;3040;42.654;23.296;2023-01-06T10:58:54;1.20;;;1.00;;
6023;SDS011;3040;42.654;23.296;2023-01-06T11:01:26;1.87;;;1.10;;
6023;SDS011;3040;42.654;23.296;2023-01-06T11:04:04;1.63;;;1.47;;
6023;SDS011;3040;42.654;23.296;2023-01-06T11:06:36;1.27;;;1.17;;
6023;SDS011;3040;42.654;23.296;2023-01-06T11:09:05;1.43;;;1.30;;
6023;SDS011;3040;42.654;23.296;2023-01-06T11:11:43;2.97;;;1.30;;
6023;SDS011;3040;42.654;23.296;2023-01-06T11:14:14;2.90;;;1.27;;
6023;SDS011;3040;42.654;23.296;2023-01-06T11:16:44;4.50;;;1.33;;
6023;SDS011;3040;42.654;23.296;2023-01-06T11:19:22;2.70;;;1.10;;
6023;SDS011;3040;42.654;23.296;2023-01-06T11:21:57;1.77;;;1.03;;
6023;SDS011;3040;42.654;23.296;2023-01-06T11:24:24;1.53;;;1.40;;
6023;SDS011;3040;42.654;23.296;2023-01-06T11:26:52;1.50;;;1.40;;
6023;SDS011;3040;42.654;23.296;2023-01-06T11:29:24;2.60;;;1.63;;
6023;SDS011;3040;42.654;23.296;2023-01-06T11:31:54;2.23;;;1.20;;
6023;SDS011;3040;42.654;23.296;2023-01-06T11:34:24;1.97;;;1.37;;
6023;SDS011;3040;42.654;23.296;2023-01-06T11:36:53;2.63;;;1.10;;
6023;SDS011;3040;42.654;23.296;2023-01-06T11:39:23;1.60;;;1.10;;
6023;SDS011;3040;42.654;23.296;2023-01-06T11:41:53;4.23;;;0.87;;
6023;SDS011;3040;42.654;23.296;2023-01-06T11:44:24;1.30;;;1.20;;
6023;SDS011;3040;42.654;23.296;2023-01-06T11:46:56;1.80;;;0.90;;
6023;SDS011;3040;42.654;23.296;2023-01-06T11:49:27;2.70;;;1.63;;
6023;SDS011;3040;42.654;23.296;2023-01-06T11:51:58;2.43;;;1.10;;
6023;SDS011;3040;42.654;23.296;2023-01-06T11:54:34;5.30;;;1.23;;
6023;SDS011;3040;42.654;23.296;2023-01-06T11:57:15;1.03;;;1.03;;
6023;SDS011;3040;42.654;23.296;2023-01-06T11:59:56;5.77;;;1.20;;
6023;SDS011;3040;42.654;23.296;2023-01-06T12:02:35;2.47;;;0.97;;
6023;SDS011;3040;42.654;23.296;2023-01-06T12:05:15;1.13;;;1.13;;
6023;SDS011;3040;42.654;23.296;2023-01-06T12:07:50;2.70;;;1.40;;
6023;SDS011;3040;42.654;23.296;2023-01-06T12:10:19;3.40;;;1.37;;
6023;SDS011;3040;42.654;23.296;2023-01-06T12:12:50;7.13;;;1.70;;
6023;SDS011;3040;42.654;23.296;2023-01-06T12:15:17;4.47;;;1.63;;
6023;SDS011;3040;42.654;23.296;2023-01-06T12:17:46;1.90;;;1.17;;
6023;SDS011;3040;42.654;23.296;2023-01-06T12:20:19;1.40;;;1.27;;
6023;SDS011;3040;42.654;23.296;2023-01-06T12:22:50;1.50;;;1.40;;
6023;SDS011;3040;42.654;23.296;2023-01-06T12:25:22;3.50;;;1.43;;
6023;SDS011;3040;42.654;23.296;2023-01-06T12:27:53;1.30;;;1.20;;
6023;SDS011;3040;42.654;23.296;2023-01-06T12:30:26;3.67;;;1.27;;
6023;SDS011;3040;42.654;23.296;2023-01-06T12:32:59;1.60;;;1.03;;
6023;SDS011;3040;42.654;23.296;2023-01-06T12:35:32;0.90;;;0.90;;
6023;SDS011;3040;42.654;23.296;2023-01-06T12:38:03;1.50;;;1.40;;
6023;SDS011;3040;42.654;23.296;2023-01-06T12:40:40;1.30;;;1.27;;
6023;SDS011;3040;42.654;23.296;2023-01-06T12:43:14;1.50;;;1.13;;
6023;SDS011;3040;42.654;23.296;2023-01-06T12:45:45;7.33;;;1.50;;
6023;SDS011;3040;42.654;23.296;2023-01-06T12:48:24;4.60;;;1.63;;
6023;SDS011;3040;42.654;23.296;2023-01-06T12:51:00;1.23;;;1.10;;
6023;SDS011;3040;42.654;23.296;2023-01-06T12:53:33;1.50;;;1.40;;
6023;SDS011;3040;42.654;23.296;2023-01-06T12:58:57;2.63;;;1.50;;
6023;SDS011;3040;42.654;23.296;2023-01-06T13:01:34;3.73;;;1.40;;
6023;SDS011;3040;42.654;23.296;2023-01-06T13:07:16;3.07;;;1.40;;
6023;SDS011;3040;42.654;23.296;2023-01-06T13:09:53;2.23;;;1.20;;
6023;SDS011;3040;42.654;23.296;2023-01-06T13:15:17;1.63;;;1.50;;
6023;SDS011;3040;42.654;23.296;2023-01-06T13:17:50;1.87;;;1.77;;
6023;SDS011;3040;42.654;23.296;2023-01-06T13:20:25;2.83;;;1.47;;
6023;SDS011;3040;42.654;23.296;2023-01-06T13:23:00;1.53;;;1.20;;
6023;SDS011;3040;42.654;23.296;2023-01-06T13:25:51;5.13;;;1.40;;
6023;SDS011;3040;42.654;23.296;2023-01-06T13:28:39;1.73;;;1.27;;
6023;SDS011;3040;42.654;23.296;2023-01-06T13:31:24;3.40;;;1.27;;
6023;SDS011;3040;42.654;23.296;2023-01-06T13:34:17;2.03;;;1.37;;
6023;SDS011;3040;42.654;23.296;2023-01-06T13:37:18;1.90;;;1.80;;
6023;SDS011;3040;42.654;23.296;2023-01-06T13:40:01;1.80;;;1.60;;
6023;SDS011;3040;42.654;23.296;2023-01-06T13:42:32;1.80;;;1.67;;
6023;SDS011;3040;42.654;23.296;2023-01-06T13:45:03;1.60;;;1.50;;
6023;SDS011;3040;42.654;23.296;2023-01-06T13:47:33;1.77;;;1.67;;
6023;SDS011;3040;42.654;23.296;2023-01-06T13:50:01;1.60;;;1.50;;
6023;SDS011;3040;42.654;23.296;2023-01-06T13:52:30;1.97;;;1.77;;
6023;SDS011;3040;42.654;23.296;2023-01-06T13:57:51;1.63;;;1.53;;
6023;SDS011;3040;42.654;23.296;2023-01-06T14:00:21;1.70;;;1.60;;
6023;SDS011;3040;42.654;23.296;2023-01-06T14:02:58;4.13;;;1.60;;
6023;SDS011;3040;42.654;23.296;2023-01-06T14:05:56;2.40;;;1.87;;
6023;SDS011;3040;42.654;23.296;2023-01-06T14:08:28;1.90;;;1.80;;
6023;SDS011;3040;42.654;23.296;2023-01-06T14:11:01;1.53;;;1.43;;
6023;SDS011;3040;42.654;23.296;2023-01-06T14:13:31;2.03;;;1.80;;
6023;SDS011;3040;42.654;23.296;2023-01-06T14:16:03;1.80;;;1.70;;
6023;SDS011;3040;42.654;23.296;2023-01-06T14:18:37;4.77;;;2.07;;
6023;SDS011;3040;42.654;23.296;2023-01-06T14:21:14;1.70;;;1.60;;
6023;SDS011;3040;42.654;23.296;2023-01-06T14:23:51;1.80;;;1.70;;
6023;SDS011;3040;42.654;23.296;2023-01-06T14:26:22;3.70;;;1.93;;
6023;SDS011;3040;42.654;23.296;2023-01-06T14:35:27;2.17;;;1.97;;
6023;SDS011;3040;42.654;23.296;2023-01-06T14:37:58;1.97;;;1.80;;
6023;SDS011;3040;42.654;23.296;2023-01-06T14:40:28;2.07;;;1.80;;
6023;SDS011;3040;42.654;23.296;2023-01-06T14:43:00;1.77;;;1.67;;
6023;SDS011;3040;42.654;23.296;2023-01-06T14:45:33;2.50;;;2.13;;
6023;SDS011;3040;42.654;23.296;2023-01-06T14:48:03;2.37;;;2.27;;
6023;SDS011;3040;42.654;23.296;2023-01-06T14:50:34;1.80;;;1.70;;
6023;SDS011;3040;42.654;23.296;2023-01-06T14:53:06;2.83;;;1.27;;
6023;SDS011;3040;42.654;23.296;2023-01-06T14:55:39;2.37;;;1.70;;
6023;SDS011;3040;42.654;23.296;2023-01-06T14:58:27;2.40;;;1.80;;
6023;SDS011;3040;42.654;23.296;2023-01-06T15:00:55;2.90;;;2.17;;
6023;SDS011;3040;42.654;23.296;2023-01-06T15:03:22;6.30;;;2.03;;
6023;SDS011;3040;42.654;23.296;2023-01-06T15:05:50;2.90;;;1.97;;
6023;SDS011;3040;42.654;23.296;2023-01-06T15:08:35;2.30;;;1.70;;
6023;SDS011;3040;42.654;23.296;2023-01-06T15:11:10;2.83;;;2.17;;
6023;SDS011;3040;42.654;23.296;2023-01-06T15:13:46;2.33;;;2.00;;
6023;SDS011;3040;42.654;23.296;2023-01-06T15:16:15;4.33;;;2.00;;
6023;SDS011;3040;42.654;23.296;2023-01-06T15:18:46;2.40;;;2.20;;
6023;SDS011;3040;42.654;23.296;2023-01-06T15:21:17;3.73;;;2.40;;
6023;SDS011;3040;42.654;23.296;2023-01-06T15:23:45;2.80;;;2.60;;
6023;SDS011;3040;42.654;23.296;2023-01-06T15:26:15;2.53;;;1.87;;
6023;SDS011;3040;42.654;23.296;2023-01-06T15:28:55;2.90;;;2.70;;
6023;SDS011;3040;42.654;23.296;2023-01-06T15:31:27;3.53;;;2.47;;
6023;SDS011;3040;42.654;23.296;2023-01-06T15:33:57;4.53;;;3.03;;
6023;SDS011;3040;42.654;23.296;2023-01-06T15:36:25;2.97;;;2.77;;
6023;SDS011;3040;42.654;23.296;2023-01-06T15:38:52;3.93;;;2.33;;
6023;SDS011;3040;42.654;23.296;2023-01-06T15:41:25;2.37;;;2.17;;
6023;SDS011;3040;42.654;23.296;2023-01-06T15:43:59;6.10;;;2.60;;
6023;SDS011;3040;42.654;23.296;2023-01-06T15:46:34;2.93;;;2.63;;
6023;SDS011;3040;42.654;23.296;2023-01-06T15:49:04;3.13;;;2.93;;
6023;SDS011;3040;42.654;23.296;2023-01-06T15:51:32;3.43;;;2.90;;